Time;durP1;ratioP1;P1;durP2;ratioP2;P2;SDS_P1;SDS_P2;PMS_P1;PMS_P2;Temp;Humidity;BMP_temperature;BMP_pressure;BME280_temperature;BME280_humidity;BME280_pressure;Samples;Min_cycle;Max_cycle;Signal;HPM_P1;HPM_P2
2022/06/18 00:00:12;;;;;;;6.25;2.15;;;25.40;99.90;;;;;;5054848;28;20159;-94
2022/06/18 00:02:38;;;;;;;9.40;2.17;;;25.50;99.90;;;;;;5054479;28;20579;-94
2022/06/18 00:05:05;;;;;;;3.28;2.35;;;25.50;99.90;;;;;;5056272;28;20173;-94
2022/06/18 00:07:32;;;;;;;4.03;2.50;;;25.40;99.90;;;;;;5055874;28;20187;-92
2022/06/18 00:10:04;;;;;;;2.28;2.08;;;25.50;99.90;;;;;;5055392;28;20170;-92
2022/06/18 00:15:19;;;;;;;2.75;2.10;;;25.40;99.90;;;;;;5054846;28;20186;-81
2022/06/18 00:17:45;;;;;;;2.50;2.30;;;25.40;99.90;;;;;;5053142;28;20217;-82
2022/06/18 00:20:12;;;;;;;3.97;2.30;;;25.40;99.90;;;;;;5054209;28;20217;-80
2022/06/18 00:22:41;;;;;;;3.03;1.85;;;25.30;99.90;;;;;;5053550;28;20167;-93
2022/06/18 00:25:25;;;;;;;2.38;2.08;;;25.30;99.90;;;;;;5055479;28;20256;-93
2022/06/18 00:27:50;;;;;;;4.82;2.20;;;25.20;99.90;;;;;;5054258;28;20187;-80
2022/06/18 00:30:20;;;;;;;4.18;2.60;;;25.20;99.90;;;;;;5054554;28;20179;-93
2022/06/18 00:32:46;;;;;;;2.50;1.92;;;25.20;99.90;;;;;;5054175;28;20656;-80
2022/06/18 00:35:12;;;;;;;5.60;1.95;;;25.20;99.90;;;;;;5054220;28;20228;-81
2022/06/18 00:37:39;;;;;;;2.78;2.03;;;25.10;99.90;;;;;;5052633;28;20293;-92
2022/06/18 00:40:31;;;;;;;5.20;2.60;;;25.10;99.90;;;;;;5055037;28;20171;-81
2022/06/18 00:42:59;;;;;;;2.50;2.25;;;25.00;99.90;;;;;;5053997;28;20175;-91
2022/06/18 00:45:28;;;;;;;13.75;2.63;;;25.10;99.90;;;;;;5054154;28;20173;-93
2022/06/18 00:48:09;;;;;;;4.97;2.08;;;25.10;99.90;;;;;;5053653;28;20194;-93
2022/06/18 00:50:44;;;;;;;5.03;2.22;;;24.90;99.90;;;;;;5054238;28;20163;-80
2022/06/18 00:53:23;;;;;;;4.65;2.00;;;24.90;99.90;;;;;;5052456;28;20163;-93
2022/06/18 00:56:01;;;;;;;8.10;1.98;;;24.90;99.90;;;;;;5054870;28;20166;-82
2022/06/18 00:58:41;;;;;;;3.88;2.58;;;24.90;99.90;;;;;;5053700;28;20209;-81
2022/06/18 01:01:26;;;;;;;2.90;2.03;;;25.00;99.90;;;;;;5052469;28;20504;-83
2022/06/18 01:03:52;;;;;;;5.07;2.53;;;25.00;99.90;;;;;;5053694;28;20252;-93
2022/06/18 01:06:25;;;;;;;4.88;2.45;;;25.20;99.90;;;;;;5054361;28;20584;-91
2022/06/18 01:09:06;;;;;;;12.20;2.80;;;25.00;99.90;;;;;;5055308;28;20159;-93
2022/06/18 01:11:37;;;;;;;3.60;2.22;;;24.80;99.90;;;;;;5073118;28;20604;-80
2022/06/18 01:14:05;;;;;;;3.10;2.80;;;24.90;99.90;;;;;;5069600;28;20191;-81
2022/06/18 01:16:32;;;;;;;2.38;2.15;;;24.80;99.90;;;;;;5072560;28;20223;-83
2022/06/18 01:18:59;;;;;;;2.50;2.28;;;24.70;99.90;;;;;;5053373;28;20186;-80
2022/06/18 01:21:47;;;;;;;6.40;2.78;;;24.60;99.90;;;;;;5054068;28;20179;-93
2022/06/18 01:24:17;;;;;;;5.95;2.20;;;24.50;99.90;;;;;;5053847;28;20159;-81
2022/06/18 01:26:46;;;;;;;6.53;2.50;;;24.50;99.90;;;;;;5053762;28;20210;-81
2022/06/18 01:29:12;;;;;;;7.82;2.40;;;24.50;99.90;;;;;;5054425;28;20658;-93
2022/06/18 01:31:38;;;;;;;7.78;2.25;;;24.60;99.90;;;;;;5058695;28;20167;-90
2022/06/18 01:34:05;;;;;;;3.03;2.70;;;24.60;99.90;;;;;;5059188;28;20163;-93
2022/06/18 01:36:34;;;;;;;3.78;2.53;;;24.60;99.90;;;;;;5059644;28;20410;-93
2022/06/18 01:39:02;;;;;;;6.75;2.70;;;24.60;99.90;;;;;;5060095;28;20175;-93
2022/06/18 01:41:50;;;;;;;3.38;2.50;;;24.50;99.90;;;;;;5058941;28;20186;-93
2022/06/18 01:44:37;;;;;;;5.55;2.33;;;24.50;99.90;;;;;;5059280;28;20190;-93
2022/06/18 01:47:47;;;;;;;2.90;2.20;;;24.40;99.90;;;;;;5058835;28;20210;-91
2022/06/18 01:50:21;;;;;;;2.90;2.58;;;24.40;99.90;;;;;;4998218;28;20177;-91
2022/06/18 01:53:00;;;;;;;5.25;2.00;;;24.10;99.90;;;;;;4978797;28;20231;-92
2022/06/18 01:55:34;;;;;;;4.70;2.53;;;24.20;99.90;;;;;;5023980;28;20217;-91
2022/06/18 01:58:09;;;;;;;3.67;2.10;;;24.30;99.90;;;;;;5053426;28;20238;-82
2022/06/18 02:00:35;;;;;;;4.13;2.65;;;24.40;99.90;;;;;;5053489;28;20197;-93
2022/06/18 02:03:03;;;;;;;8.57;2.60;;;24.30;99.90;;;;;;5053833;28;20199;-83
2022/06/18 02:05:29;;;;;;;2.67;2.47;;;24.30;99.90;;;;;;5053951;28;20163;-93
2022/06/18 02:07:55;;;;;;;2.90;2.40;;;24.30;99.90;;;;;;5053758;28;20305;-93
2022/06/18 02:10:51;;;;;;;3.40;2.58;;;24.30;99.90;;;;;;5054063;28;20650;-93
2022/06/18 02:13:18;;;;;;;7.85;2.70;;;24.30;99.90;;;;;;5052409;28;20177;-80
2022/06/18 02:15:46;;;;;;;2.35;2.25;;;24.30;99.90;;;;;;5052800;28;20170;-92
2022/06/18 02:18:15;;;;;;;2.75;2.55;;;24.30;99.90;;;;;;5052693;28;20210;-92
2022/06/18 02:20:46;;;;;;;5.63;2.78;;;24.30;99.90;;;;;;5053868;28;20650;-93
2022/06/18 02:23:12;;;;;;;8.63;2.40;;;24.20;99.90;;;;;;5054812;28;20178;-92
2022/06/18 02:25:38;;;;;;;3.83;2.72;;;24.20;99.90;;;;;;5074648;28;20163;-82
2022/06/18 02:28:24;;;;;;;6.40;2.92;;;24.20;99.90;;;;;;5073887;28;20217;-82
2022/06/18 02:30:52;;;;;;;7.82;2.60;;;24.10;99.90;;;;;;5079205;28;20166;-94
2022/06/18 02:33:37;;;;;;;7.30;3.00;;;24.10;99.90;;;;;;5057249;28;20619;-81
2022/06/18 02:36:23;;;;;;;7.18;2.60;;;24.30;99.90;;;;;;5056867;28;20226;-81
2022/06/18 02:38:56;;;;;;;4.80;4.30;;;24.10;99.90;;;;;;5056290;28;20167;-81
2022/06/18 02:41:23;;;;;;;4.00;2.92;;;24.10;99.90;;;;;;5056265;28;20174;-81
2022/06/18 02:43:49;;;;;;;4.70;3.00;;;24.00;99.90;;;;;;5056216;28;20170;-81
2022/06/18 02:46:15;;;;;;;4.88;3.00;;;24.00;99.90;;;;;;5056022;28;20167;-89
2022/06/18 02:48:41;;;;;;;3.70;2.63;;;23.90;99.90;;;;;;5056447;28;20275;-81
2022/06/18 02:51:10;;;;;;;7.20;2.90;;;23.90;99.90;;;;;;5054655;28;20229;-80
2022/06/18 02:53:36;;;;;;;4.57;3.00;;;23.80;99.90;;;;;;5057003;28;20174;-81
2022/06/18 02:56:04;;;;;;;5.88;2.67;;;23.80;99.90;;;;;;5056527;28;20198;-93
2022/06/18 02:58:37;;;;;;;9.45;3.30;;;23.80;99.90;;;;;;5057287;28;20695;-93
2022/06/18 03:01:10;;;;;;;3.70;3.40;;;23.90;99.90;;;;;;5055176;28;20175;-92
2022/06/18 03:03:39;;;;;;;3.33;3.05;;;23.80;99.90;;;;;;5056887;28;20171;-93
2022/06/18 03:06:06;;;;;;;3.95;3.55;;;23.70;99.90;;;;;;5056324;28;20175;-92
2022/06/18 03:08:33;;;;;;;8.07;3.60;;;23.80;99.90;;;;;;5054611;28;20241;-81
2022/06/18 03:13:45;;;;;;;4.53;3.50;;;23.60;99.90;;;;;;5055460;28;20178;-80
2022/06/18 03:16:13;;;;;;;7.43;3.08;;;23.50;99.90;;;;;;5057267;28;20195;-93
2022/06/18 03:18:40;;;;;;;9.73;3.05;;;23.50;99.90;;;;;;5057138;28;20199;-93
2022/06/18 03:21:19;;;;;;;4.10;3.40;;;23.40;99.90;;;;;;5058275;28;20179;-93
2022/06/18 03:23:45;;;;;;;13.65;3.30;;;23.40;99.90;;;;;;5055886;28;20163;-80
2022/06/18 03:26:12;;;;;;;7.65;3.42;;;23.40;99.90;;;;;;5057302;28;20238;-93
2022/06/18 03:28:40;;;;;;;4.90;2.95;;;23.40;99.90;;;;;;5056600;28;20237;-93
2022/06/18 03:31:07;;;;;;;6.03;2.70;;;23.40;99.90;;;;;;5057551;28;20175;-82
2022/06/18 03:33:32;;;;;;;4.78;3.00;;;23.40;99.90;;;;;;5060048;28;20246;-93
2022/06/18 03:35:59;;;;;;;6.63;3.47;;;23.50;99.90;;;;;;5056814;28;20214;-81
2022/06/18 03:38:25;;;;;;;10.85;3.95;;;23.40;99.90;;;;;;5055939;28;20190;-80
2022/06/18 03:40:51;;;;;;;3.42;3.13;;;23.50;99.90;;;;;;5057894;28;20175;-81
2022/06/18 03:43:22;;;;;;;6.07;3.33;;;23.50;99.90;;;;;;5060564;28;20163;-81
2022/06/18 03:45:52;;;;;;;7.38;3.85;;;23.40;99.90;;;;;;5076727;28;20155;-79
2022/06/18 03:48:42;;;;;;;3.53;3.22;;;23.50;99.90;;;;;;5078902;28;20198;-88
2022/06/18 03:51:09;;;;;;;3.50;3.20;;;23.50;99.90;;;;;;5079534;28;20164;-91
2022/06/18 03:53:35;;;;;;;9.93;3.50;;;23.40;99.90;;;;;;5066859;28;20155;-81
2022/06/18 03:56:01;;;;;;;14.90;3.50;;;23.40;99.90;;;;;;5067567;28;20205;-81
2022/06/18 03:58:28;;;;;;;4.50;3.25;;;23.30;99.90;;;;;;5078175;28;20194;-82
2022/06/18 04:00:54;;;;;;;16.75;3.70;;;23.40;99.90;;;;;;5076399;28;20162;-82
2022/06/18 04:03:19;;;;;;;10.38;3.35;;;23.30;99.90;;;;;;5079451;28;20218;-83
2022/06/18 04:05:45;;;;;;;3.33;2.83;;;23.20;99.90;;;;;;5080022;28;20170;-84
2022/06/18 04:08:17;;;;;;;6.30;2.90;;;22.90;99.90;;;;;;5079640;28;20179;-89
2022/06/18 04:10:43;;;;;;;14.15;4.18;;;22.90;99.90;;;;;;5057896;28;20163;-92
2022/06/18 04:13:09;;;;;;;9.90;2.97;;;23.00;99.90;;;;;;5056230;28;20167;-94
2022/06/18 04:15:35;;;;;;;11.68;3.33;;;23.10;99.90;;;;;;5055773;28;20251;-82
2022/06/18 04:18:01;;;;;;;10.27;3.67;;;23.20;99.90;;;;;;5055508;28;20207;-93
2022/06/18 04:20:31;;;;;;;7.25;3.42;;;23.40;99.90;;;;;;5055627;28;20619;-80
2022/06/18 04:22:56;;;;;;;6.70;3.53;;;23.60;99.90;;;;;;5054177;28;20167;-81
2022/06/18 04:25:23;;;;;;;21.73;3.63;;;23.60;99.90;;;;;;5055559;28;20509;-94
2022/06/18 04:27:49;;;;;;;8.77;3.42;;;23.60;99.90;;;;;;5056732;28;20236;-84
2022/06/18 04:30:17;;;;;;;7.88;3.72;;;23.80;99.90;;;;;;5055863;28;20163;-91
2022/06/18 04:32:43;;;;;;;10.82;3.33;;;23.90;99.90;;;;;;5056311;28;20178;-95
2022/06/18 04:35:12;;;;;;;5.32;3.60;;;23.90;99.90;;;;;;5056134;28;20227;-94
2022/06/18 04:37:39;;;;;;;7.13;3.95;;;24.00;99.90;;;;;;5056204;28;20678;-94
2022/06/18 04:40:05;;;;;;;6.70;3.83;;;24.20;99.90;;;;;;5055584;28;20167;-82
2022/06/18 04:42:31;;;;;;;9.00;3.72;;;24.30;99.90;;;;;;5053787;28;20174;-79
2022/06/18 04:44:57;;;;;;;3.50;3.15;;;24.30;99.90;;;;;;5054637;28;20155;-95
2022/06/18 04:47:23;;;;;;;3.72;3.28;;;24.20;99.90;;;;;;5056784;28;20209;-82
2022/06/18 04:49:50;;;;;;;6.55;3.53;;;24.40;99.90;;;;;;5058927;28;20222;-90
2022/06/18 04:52:16;;;;;;;8.45;3.38;;;24.70;99.90;;;;;;5059998;28;20198;-93
2022/06/18 04:54:41;;;;;;;5.28;3.22;;;24.70;99.90;;;;;;5059981;28;20159;-80
2022/06/18 04:57:07;;;;;;;6.63;3.22;;;24.70;99.90;;;;;;5057154;28;20207;-81
2022/06/18 04:59:35;;;;;;;16.30;4.10;;;24.80;99.90;;;;;;5057993;28;20185;-94
2022/06/18 05:02:06;;;;;;;16.65;3.45;;;24.90;99.90;;;;;;5060809;28;20273;-94
2022/06/18 05:04:34;;;;;;;15.63;3.72;;;24.90;99.90;;;;;;5059701;28;20523;-82
2022/06/18 05:06:59;;;;;;;7.25;2.70;;;25.10;99.90;;;;;;5059599;28;20193;-95
2022/06/18 05:09:25;;;;;;;3.40;2.80;;;25.20;99.90;;;;;;5058718;28;20628;-82
2022/06/18 05:11:50;;;;;;;9.68;3.60;;;25.20;99.90;;;;;;5056347;28;20198;-81
2022/06/18 05:14:16;;;;;;;6.03;3.20;;;25.40;99.90;;;;;;5061566;28;20171;-87
2022/06/18 05:16:43;;;;;;;16.30;4.40;;;25.50;99.90;;;;;;5073226;28;20211;-82
2022/06/18 05:19:24;;;;;;;8.23;3.65;;;25.50;99.90;;;;;;5076815;28;20182;-89
2022/06/18 05:21:52;;;;;;;4.40;3.10;;;25.50;99.90;;;;;;5067397;28;20258;-95
2022/06/18 05:24:18;;;;;;;8.13;3.42;;;25.60;99.90;;;;;;5072121;28;20171;-80
2022/06/18 05:26:48;;;;;;;7.35;2.90;;;25.60;99.90;;;;;;5066602;28;20187;-94
2022/06/18 05:29:16;;;;;;;10.60;3.58;;;25.60;99.90;;;;;;5063266;28;20289;-95
2022/06/18 05:31:42;;;;;;;6.38;3.30;;;25.70;99.90;;;;;;5053584;28;20265;-93
2022/06/18 05:34:08;;;;;;;5.55;3.60;;;26.00;99.90;;;;;;5056426;28;20167;-94
2022/06/18 05:36:33;;;;;;;20.80;4.38;;;26.20;99.90;;;;;;5066563;28;20566;-94
2022/06/18 05:39:00;;;;;;;8.15;3.10;;;26.40;99.90;;;;;;5075707;28;20211;-81
2022/06/18 05:41:33;;;;;;;11.48;3.13;;;26.60;99.90;;;;;;5067697;28;20183;-81
2022/06/18 05:44:02;;;;;;;10.30;3.70;;;26.60;99.90;;;;;;5075485;28;20170;-81
2022/06/18 05:46:28;;;;;;;16.27;3.55;;;26.70;99.90;;;;;;5065910;28;20159;-81
2022/06/18 05:49:11;;;;;;;8.27;3.05;;;27.00;99.90;;;;;;5065983;28;20151;-94
2022/06/18 05:51:47;;;;;;;11.20;3.60;;;26.90;99.90;;;;;;5074195;28;20159;-84
2022/06/18 05:54:13;;;;;;;6.35;2.92;;;26.80;99.90;;;;;;5063086;28;20183;-82
2022/06/18 05:56:41;;;;;;;13.95;3.92;;;26.60;99.90;;;;;;5063553;28;20198;-81
2022/06/18 06:02:22;;;;;;;4.00;3.13;;;26.80;99.90;;;;;;5062058;28;20185;-92
2022/06/18 06:04:54;;;;;;;4.30;3.22;;;26.90;99.90;;;;;;5060811;28;20223;-94
2022/06/18 06:07:22;;;;;;;11.35;3.40;;;27.00;99.90;;;;;;5065658;28;20199;-81
2022/06/18 06:12:32;;;;;;;9.50;3.53;;;26.70;99.90;;;;;;5068558;28;20178;-82
2022/06/18 06:15:00;;;;;;;8.05;3.17;;;26.70;99.90;;;;;;5077479;28;20160;-92
2022/06/18 06:17:26;;;;;;;11.57;3.25;;;26.50;99.90;;;;;;5075901;28;20226;-88
2022/06/18 06:19:58;;;;;;;7.55;3.20;;;26.60;99.90;;;;;;5059103;28;20175;-96
2022/06/18 06:22:24;;;;;;;5.05;2.63;;;26.80;99.90;;;;;;5054532;28;20155;-96
2022/06/18 06:24:50;;;;;;;7.30;2.70;;;27.00;99.90;;;;;;5056943;28;20178;-87
2022/06/18 06:27:15;;;;;;;6.43;3.53;;;27.20;99.90;;;;;;5053110;28;20191;-96
2022/06/18 06:29:41;;;;;;;3.90;2.63;;;27.30;99.90;;;;;;5055998;28;20207;-96
2022/06/18 06:32:07;;;;;;;6.22;3.05;;;27.30;99.90;;;;;;5053302;28;20191;-95
2022/06/18 06:34:33;;;;;;;11.02;3.70;;;27.40;99.90;;;;;;5053321;28;20167;-96
2022/06/18 06:36:58;;;;;;;14.23;3.47;;;27.50;99.90;;;;;;5054014;28;20241;-89
2022/06/18 06:39:24;;;;;;;4.47;2.88;;;27.50;99.90;;;;;;5052285;28;20603;-92
2022/06/18 06:41:50;;;;;;;14.13;2.90;;;27.60;99.90;;;;;;5056480;28;20163;-82
2022/06/18 06:44:15;;;;;;;8.45;3.38;;;27.70;99.90;;;;;;5059286;28;20168;-96
2022/06/18 06:46:41;;;;;;;5.40;3.20;;;27.50;99.90;;;;;;5056705;28;20160;-93
2022/06/18 06:49:06;;;;;;;7.70;3.10;;;27.40;99.90;;;;;;5055599;28;20178;-85
2022/06/18 06:51:36;;;;;;;8.45;3.67;;;27.80;99.90;;;;;;5058155;28;20614;-93
2022/06/18 06:54:02;;;;;;;11.20;2.97;;;28.10;99.90;;;;;;5070366;28;20167;-88
2022/06/18 06:59:14;;;;;;;5.68;2.78;;;28.80;99.90;;;;;;5063753;28;20189;-96
2022/06/18 07:01:39;;;;;;;9.38;3.08;;;29.60;99.90;;;;;;5056156;28;20270;-93
2022/06/18 07:04:07;;;;;;;9.35;2.90;;;30.10;99.90;;;;;;5052780;28;20207;-93
2022/06/18 07:06:35;;;;;;;5.90;3.60;;;30.30;99.90;;;;;;5053720;28;20544;-94
2022/06/18 07:09:05;;;;;;;9.32;3.63;;;30.80;99.90;;;;;;5053353;28;20254;-93
2022/06/18 07:11:33;;;;;;;4.90;3.20;;;30.80;99.90;;;;;;5059103;28;20171;-84
2022/06/18 07:13:59;;;;;;;8.68;3.10;;;30.90;99.90;;;;;;5062585;28;20165;-87
2022/06/18 07:16:25;;;;;;;12.65;3.65;;;30.80;99.90;;;;;;5058907;28;20290;-83
2022/06/18 07:18:52;;;;;;;5.28;2.58;;;31.20;99.90;;;;;;5056265;28;20206;-91
2022/06/18 07:21:21;;;;;;;9.07;3.00;;;31.30;99.70;;;;;;5060398;28;20189;-88
2022/06/18 07:23:56;;;;;;;9.38;2.85;;;31.50;99.10;;;;;;5068004;28;20147;-90
2022/06/18 07:27:06;;;;;;;9.27;5.00;;;31.70;98.80;;;;;;5076508;28;20167;-96
2022/06/18 07:29:32;;;;;;;24.25;9.20;;;31.90;97.50;;;;;;5054121;28;20221;-95
2022/06/18 07:32:11;;;;;;;12.05;4.07;;;31.90;97.40;;;;;;5056186;28;20623;-95
2022/06/18 07:34:36;;;;;;;12.18;3.70;;;31.90;96.90;;;;;;5056569;28;20227;-92
2022/06/18 07:37:02;;;;;;;15.27;2.63;;;31.60;96.90;;;;;;5054362;28;20214;-84
2022/06/18 07:39:28;;;;;;;21.60;3.08;;;31.80;97.00;;;;;;5053026;28;20163;-84
2022/06/18 07:41:54;;;;;;;7.05;2.55;;;31.90;97.00;;;;;;5042306;28;20176;-93
2022/06/18 07:44:21;;;;;;;17.48;2.88;;;32.30;96.60;;;;;;5056432;28;20163;-82
2022/06/18 07:46:47;;;;;;;13.40;2.85;;;32.20;96.20;;;;;;5055466;28;20715;-88
2022/06/18 07:49:14;;;;;;;12.50;2.67;;;32.60;95.80;;;;;;5054456;28;20258;-84
2022/06/18 07:51:39;;;;;;;11.38;2.47;;;31.80;96.80;;;;;;5053930;28;20546;-82
2022/06/18 07:54:05;;;;;;;9.90;2.70;;;31.90;96.40;;;;;;5055519;28;20241;-84
2022/06/18 07:56:32;;;;;;;4.72;2.67;;;31.50;96.50;;;;;;5054823;28;20637;-85
2022/06/18 07:58:58;;;;;;;10.38;3.30;;;31.90;96.90;;;;;;5053860;28;20268;-84
2022/06/18 08:01:24;;;;;;;4.82;2.80;;;31.50;96.30;;;;;;5055348;28;20163;-85
2022/06/18 08:03:50;;;;;;;6.60;2.40;;;31.40;96.30;;;;;;5053873;28;20185;-84
2022/06/18 08:06:16;;;;;;;11.55;2.72;;;31.00;96.30;;;;;;5054785;28;20167;-83
2022/06/18 08:08:42;;;;;;;15.95;2.58;;;31.00;96.20;;;;;;5053336;28;20191;-82
2022/06/18 08:11:11;;;;;;;8.48;2.50;;;31.00;96.50;;;;;;5053986;28;20170;-85
2022/06/18 08:13:37;;;;;;;18.83;3.45;;;30.90;96.90;;;;;;5055479;28;20167;-86
2022/06/18 08:16:04;;;;;;;26.52;3.83;;;30.80;96.90;;;;;;5053536;28;20630;-86
2022/06/18 08:18:30;;;;;;;7.50;2.42;;;30.70;96.90;;;;;;5053429;28;20658;-83
2022/06/18 08:21:00;;;;;;;4.88;2.53;;;30.50;97.30;;;;;;5054359;28;20214;-81
2022/06/18 08:23:25;;;;;;;8.75;2.72;;;30.40;96.20;;;;;;5053171;28;20202;-82
2022/06/18 08:25:51;;;;;;;3.38;2.40;;;30.30;98.00;;;;;;5052741;28;20194;-86
2022/06/18 08:28:17;;;;;;;7.65;2.35;;;30.60;96.90;;;;;;5053757;28;20214;-82
2022/06/18 08:30:42;;;;;;;8.10;2.97;;;30.60;97.10;;;;;;5054555;28;20173;-82
2022/06/18 08:33:08;;;;;;;9.45;2.88;;;30.50;97.50;;;;;;5053309;28;20210;-82
2022/06/18 08:35:37;;;;;;;10.18;3.13;;;30.60;98.00;;;;;;5053224;28;20171;-85
2022/06/18 08:38:05;;;;;;;17.17;3.00;;;30.70;97.70;;;;;;5054528;28;20264;-85
2022/06/18 08:40:51;;;;;;;11.40;2.67;;;30.80;97.20;;;;;;5057065;28;20162;-85
2022/06/18 08:43:26;;;;;;;9.15;2.53;;;30.50;97.40;;;;;;5063336;28;20158;-83
2022/06/18 08:46:12;;;;;;;14.05;2.58;;;30.70;97.10;;;;;;5077777;28;20161;-84
2022/06/18 08:48:56;;;;;;;12.73;2.40;;;30.80;98.50;;;;;;5052589;28;20211;-82
2022/06/18 08:51:41;;;;;;;5.88;2.50;;;30.70;97.60;;;;;;5053954;28;20167;-80
2022/06/18 08:54:16;;;;;;;4.95;2.80;;;30.80;97.20;;;;;;5053879;28;20178;-81
2022/06/18 08:56:51;;;;;;;6.13;2.40;;;30.80;96.60;;;;;;5052042;28;20592;-81
2022/06/18 08:59:44;;;;;;;9.68;1.90;;;30.80;96.40;;;;;;5052793;28;20172;-81
2022/06/18 09:02:32;;;;;;;9.80;2.95;;;30.60;97.20;;;;;;5053583;28;20662;-82
2022/06/18 09:05:08;;;;;;;4.88;2.10;;;30.70;97.70;;;;;;5052127;28;20536;-82
2022/06/18 09:08:01;;;;;;;10.20;2.50;;;31.00;96.50;;;;;;5054532;28;20220;-82
2022/06/18 09:10:45;;;;;;;7.45;2.40;;;31.20;96.20;;;;;;5052255;28;20166;-82
2022/06/18 09:13:24;;;;;;;8.35;2.08;;;31.30;95.80;;;;;;5053155;28;20170;-83
2022/06/18 09:16:02;;;;;;;11.07;3.58;;;31.50;96.90;;;;;;5052279;28;20171;-81
2022/06/18 09:18:50;;;;;;;5.07;2.40;;;31.60;96.00;;;;;;5053160;28;20307;-83
2022/06/18 09:21:24;;;;;;;9.35;2.65;;;31.60;96.70;;;;;;5052010;28;20171;-83
2022/06/18 09:23:56;;;;;;;18.55;2.63;;;31.60;96.20;;;;;;5052046;28;20221;-83
2022/06/18 09:26:41;;;;;;;6.30;2.72;;;31.80;97.00;;;;;;5053166;28;20175;-83
2022/06/18 09:29:16;;;;;;;9.25;3.88;;;32.00;96.10;;;;;;5051983;28;20288;-82
2022/06/18 09:32:04;;;;;;;6.82;3.72;;;31.70;96.20;;;;;;5052397;28;20177;-84
2022/06/18 09:34:43;;;;;;;9.90;2.78;;;31.70;96.70;;;;;;5051635;28;20507;-85
2022/06/18 09:37:16;;;;;;;12.07;2.80;;;31.50;97.10;;;;;;5053731;28;20206;-85
2022/06/18 09:39:46;;;;;;;7.88;2.55;;;31.80;96.90;;;;;;5053331;28;20162;-85
2022/06/18 09:42:19;;;;;;;8.20;3.28;;;32.10;96.80;;;;;;5051882;28;20171;-84
2022/06/18 09:44:53;;;;;;;11.25;3.08;;;32.10;95.80;;;;;;5052125;28;20257;-85
2022/06/18 09:47:35;;;;;;;8.85;2.63;;;32.20;95.50;;;;;;5053148;28;20206;-84
2022/06/18 09:50:01;;;;;;;4.78;2.53;;;32.30;96.00;;;;;;5051778;28;20178;-84
2022/06/18 09:52:39;;;;;;;25.20;2.75;;;32.30;95.40;;;;;;5052057;28;20641;-85
2022/06/18 09:55:20;;;;;;;17.17;3.20;;;32.60;95.70;;;;;;5052106;28;20170;-85
2022/06/18 09:57:51;;;;;;;10.25;2.83;;;32.60;95.20;;;;;;5051988;28;20214;-85
2022/06/18 10:00:21;;;;;;;16.50;3.33;;;32.60;95.20;;;;;;5052160;28;20178;-85
2022/06/18 10:03:02;;;;;;;6.07;3.53;;;32.60;95.30;;;;;;5051366;28;20255;-84
2022/06/18 10:08:36;;;;;;;8.38;3.35;;;32.90;96.00;;;;;;5053381;28;20288;-84
2022/06/18 10:11:09;;;;;;;11.35;2.97;;;32.90;94.40;;;;;;5052050;28;20174;-84
2022/06/18 10:13:51;;;;;;;9.10;3.78;;;32.70;94.70;;;;;;5051402;28;20169;-85
2022/06/18 10:16:49;;;;;;;11.25;2.60;;;32.60;94.90;;;;;;5052826;28;20748;-85
2022/06/18 10:19:30;;;;;;;5.28;2.95;;;32.70;95.40;;;;;;5051221;28;20214;-85
2022/06/18 10:22:19;;;;;;;12.45;3.55;;;32.90;95.10;;;;;;5052706;28;20220;-85
2022/06/18 10:25:18;;;;;;;8.57;3.20;;;32.80;94.70;;;;;;5051420;28;20611;-85
2022/06/18 10:28:06;;;;;;;12.35;3.03;;;32.70;94.70;;;;;;5052403;28;20252;-86
2022/06/18 10:30:51;;;;;;;10.30;2.35;;;32.60;95.20;;;;;;5051017;28;20171;-86
2022/06/18 10:33:16;;;;;;;16.00;2.50;;;32.50;95.20;;;;;;5050055;28;20178;-86
2022/06/18 10:36:13;;;;;;;12.55;2.20;;;32.60;95.20;;;;;;5043950;28;20599;-85
2022/06/18 10:39:19;;;;;;;2.90;2.30;;;32.60;94.80;;;;;;5051112;28;20732;-86
2022/06/18 10:42:07;;;;;;;7.32;2.25;;;32.90;95.70;;;;;;5053643;28;20167;-85
2022/06/18 10:44:57;;;;;;;10.73;2.75;;;33.10;94.80;;;;;;5055915;28;20241;-82
2022/06/18 10:47:32;;;;;;;12.93;2.75;;;33.10;94.60;;;;;;5058068;28;20190;-84
2022/06/18 10:50:11;;;;;;;9.77;3.08;;;33.00;94.40;;;;;;5058267;28;20222;-83
2022/06/18 10:52:37;;;;;;;10.77;2.40;;;32.70;94.50;;;;;;5056048;28;20220;-83
2022/06/18 10:55:16;;;;;;;4.82;2.72;;;32.80;94.50;;;;;;5056020;28;20174;-83
2022/06/18 10:57:42;;;;;;;9.55;2.42;;;32.80;94.40;;;;;;5055692;28;20644;-84
2022/06/18 11:00:28;;;;;;;8.45;3.30;;;32.90;94.80;;;;;;5055274;28;20171;-84
2022/06/18 11:03:01;;;;;;;14.25;2.13;;;33.00;94.30;;;;;;5057030;28;20187;-84
2022/06/18 11:05:30;;;;;;;8.23;2.50;;;33.20;95.00;;;;;;5063058;28;20155;-82
2022/06/18 11:08:00;;;;;;;8.50;3.38;;;33.10;93.60;;;;;;5079983;28;20191;-83
2022/06/18 11:10:49;;;;;;;10.43;3.60;;;33.00;95.30;;;;;;5057995;28;20178;-84
2022/06/18 11:13:21;;;;;;;8.95;2.80;;;33.10;94.70;;;;;;5056999;28;21331;-84
2022/06/18 11:15:47;;;;;;;26.77;3.63;;;33.10;93.70;;;;;;5055828;28;20185;-85
2022/06/18 11:18:19;;;;;;;12.68;3.25;;;33.30;94.30;;;;;;5059959;28;20214;-84
2022/06/18 11:21:04;;;;;;;12.25;3.45;;;33.30;94.00;;;;;;5063042;28;20166;-84
2022/06/18 11:23:32;;;;;;;16.45;2.83;;;33.30;94.40;;;;;;5056015;28;20524;-84
2022/06/18 11:25:57;;;;;;;13.60;2.58;;;33.50;94.00;;;;;;5055801;28;20167;-84
2022/06/18 11:28:36;;;;;;;8.15;3.13;;;33.50;94.20;;;;;;5054009;28;20182;-84
2022/06/18 11:31:04;;;;;;;11.07;3.75;;;33.70;94.30;;;;;;5053512;28;20673;-84
2022/06/18 11:33:37;;;;;;;11.82;2.90;;;33.70;94.00;;;;;;5054041;28;20158;-84
2022/06/18 11:36:09;;;;;;;7.10;2.47;;;33.70;94.00;;;;;;5054804;28;20162;-83
2022/06/18 11:38:36;;;;;;;11.75;3.13;;;33.60;93.90;;;;;;5055259;28;20267;-85
2022/06/18 11:41:16;;;;;;;5.65;2.97;;;33.70;93.80;;;;;;5054041;28;20507;-85
2022/06/18 11:44:00;;;;;;;7.88;4.07;;;33.70;94.10;;;;;;5055068;28;20170;-83
2022/06/18 11:46:54;;;;;;;11.60;2.92;;;33.70;94.50;;;;;;5054940;28;20208;-84
2022/06/18 11:49:28;;;;;;;10.05;3.33;;;33.90;93.70;;;;;;5055038;28;20171;-84
2022/06/18 11:51:55;;;;;;;8.18;2.70;;;33.70;94.20;;;;;;5053590;28;20657;-85
2022/06/18 11:54:24;;;;;;;12.82;2.92;;;33.80;93.80;;;;;;5054731;28;20167;-85
2022/06/18 11:56:57;;;;;;;11.98;2.30;;;34.00;94.10;;;;;;5052235;28;20217;-83
2022/06/18 11:59:46;;;;;;;9.93;2.70;;;33.90;94.50;;;;;;5053531;28;20171;-84
2022/06/18 12:02:30;;;;;;;6.68;2.22;;;34.10;93.80;;;;;;5055262;28;20167;-85
2022/06/18 12:05:15;;;;;;;7.88;3.47;;;34.30;93.50;;;;;;5055766;28;20220;-84
2022/06/18 12:07:53;;;;;;;10.93;2.85;;;34.30;94.30;;;;;;5055668;28;20195;-84
2022/06/18 12:10:23;;;;;;;3.95;2.40;;;34.20;93.80;;;;;;5055984;28;20483;-84
2022/06/18 12:12:51;;;;;;;7.20;3.13;;;34.20;93.40;;;;;;5054831;28;20200;-83
2022/06/18 12:15:25;;;;;;;9.50;3.08;;;34.20;93.50;;;;;;5052987;28;20635;-83
2022/06/18 12:18:26;;;;;;;5.53;2.85;;;34.20;93.50;;;;;;5052992;28;20301;-83
2022/06/18 12:21:07;;;;;;;8.70;2.72;;;34.10;93.70;;;;;;5051206;28;20240;-85
2022/06/18 12:23:59;;;;;;;5.72;2.88;;;34.20;93.40;;;;;;5053103;28;20166;-83
2022/06/18 12:26:31;;;;;;;8.35;2.38;;;34.20;93.80;;;;;;5053968;28;20171;-84
2022/06/18 12:29:11;;;;;;;12.55;2.92;;;34.10;93.60;;;;;;5054449;28;20240;-83
2022/06/18 12:32:06;;;;;;;8.05;2.50;;;34.20;94.10;;;;;;5052898;28;20274;-83
2022/06/18 12:34:46;;;;;;;12.68;4.15;;;34.30;93.50;;;;;;5054179;28;20189;-84
2022/06/18 12:37:26;;;;;;;13.32;3.53;;;34.30;93.30;;;;;;5052548;28;20617;-83
2022/06/18 12:40:18;;;;;;;10.98;2.70;;;34.40;93.70;;;;;;5053961;28;20165;-83
2022/06/18 12:42:59;;;;;;;6.60;2.50;;;34.60;93.80;;;;;;5053797;28;20223;-83
2022/06/18 12:45:40;;;;;;;7.80;2.78;;;34.50;93.80;;;;;;5059924;28;20158;-84
2022/06/18 12:48:23;;;;;;;9.30;2.50;;;34.30;93.90;;;;;;5062857;28;20206;-84
2022/06/18 12:50:49;;;;;;;4.72;2.67;;;34.50;94.20;;;;;;5059493;28;20205;-84
2022/06/18 12:53:44;;;;;;;10.10;2.75;;;34.60;94.10;;;;;;5059941;28;20163;-84
2022/06/18 12:56:33;;;;;;;8.27;2.50;;;34.80;94.10;;;;;;5058879;28;20171;-84
2022/06/18 12:59:18;;;;;;;10.55;2.42;;;34.80;94.40;;;;;;5060924;28;20583;-84
2022/06/18 13:02:00;;;;;;;6.55;2.53;;;34.80;94.10;;;;;;5060342;28;20182;-84
2022/06/18 13:04:35;;;;;;;7.32;3.00;;;34.60;94.70;;;;;;5061026;28;20221;-84
2022/06/18 13:07:09;;;;;;;4.60;2.70;;;34.60;94.40;;;;;;5062149;28;20201;-85
2022/06/18 13:10:03;;;;;;;8.73;2.75;;;34.50;94.10;;;;;;5051590;28;20217;-86
2022/06/18 13:12:41;;;;;;;2.92;2.22;;;34.60;94.10;;;;;;5052085;28;20572;-83
2022/06/18 13:15:27;;;;;;;13.40;2.75;;;34.70;93.70;;;;;;5053371;28;20166;-84
2022/06/18 13:18:01;;;;;;;9.52;2.42;;;34.90;93.70;;;;;;5051691;28;20664;-84
2022/06/18 13:20:46;;;;;;;5.05;2.55;;;34.80;93.40;;;;;;5051630;28;20275;-84
2022/06/18 13:29:00;;;;;;;16.45;2.97;;;35.00;94.30;;;;;;5055564;28;20258;-85
2022/06/18 13:31:49;;;;;;;8.27;2.13;;;35.10;94.40;;;;;;5061271;28;20166;-85
2022/06/18 13:34:53;;;;;;;8.27;2.20;;;35.10;93.30;;;;;;5072447;28;20205;-84